createdAt,value
2018-09-18T00:00:02.643Z,65.58
2018-09-18T00:02:30.733Z,65.64
2018-09-18T00:04:58.843Z,66.24
2018-09-18T00:07:26.924Z,65.36
2018-09-18T00:09:55.008Z,65.72
2018-09-18T00:12:23.093Z,66.59
2018-09-18T00:14:51.160Z,65.75
2018-09-18T00:17:19.238Z,66.29
2018-09-18T00:19:47.349Z,66.11
2018-09-18T00:22:15.425Z,65.72
2018-09-18T00:24:43.520Z,65.55
2018-09-18T00:27:11.628Z,65.43
2018-09-18T00:29:39.709Z,65.50
2018-09-18T00:32:07.800Z,65.17
2018-09-18T00:34:35.915Z,64.74
2018-09-18T00:37:03.974Z,65.58
2018-09-18T00:39:32.084Z,64.59
2018-09-18T00:42:00.165Z,64.20
2018-09-18T00:44:28.256Z,63.35
2018-09-18T00:46:56.380Z,63.45
2018-09-18T00:49:24.475Z,63.05
2018-09-18T00:51:52.564Z,62.82
2018-09-18T00:54:20.658Z,63.17
2018-09-18T00:56:49.340Z,63.08
2018-09-18T00:59:17.437Z,63.35
2018-09-18T01:01:45.667Z,63.39
2018-09-18T01:04:13.760Z,63.96
2018-09-18T01:06:41.883Z,63.73
2018-09-18T01:09:10.793Z,62.73
2018-09-18T01:11:39.173Z,63.52
2018-09-18T01:14:07.437Z,64.22
2018-09-18T01:16:35.930Z,63.43
2018-09-18T01:19:04.040Z,63.96
2018-09-18T01:21:32.136Z,63.95
2018-09-18T01:24:00.248Z,64.18
2018-09-18T01:26:28.320Z,63.02
2018-09-18T01:28:56.423Z,63.23
2018-09-18T01:31:24.513Z,62.30
2018-09-18T01:33:52.584Z,61.96
2018-09-18T01:36:20.669Z,61.61
2018-09-18T01:38:48.744Z,61.91
2018-09-18T01:41:16.824Z,61.23
2018-09-18T01:43:44.915Z,60.72
2018-09-18T01:46:12.985Z,60.53
2018-09-18T01:48:41.166Z,60.49
2018-09-18T01:51:09.268Z,61.12
2018-09-18T01:53:37.336Z,61.05
2018-09-18T01:56:05.395Z,61.37
2018-09-18T01:58:33.464Z,61.15
2018-09-18T02:01:01.564Z,60.76
2018-09-18T02:03:29.638Z,61.18
2018-09-18T02:05:57.732Z,60.50
2018-09-18T02:08:26.092Z,60.54
2018-09-18T02:10:54.187Z,60.50
2018-09-18T02:13:22.281Z,60.03
2018-09-18T02:15:50.377Z,59.97
2018-09-18T02:18:18.440Z,60.33
2018-09-18T02:20:46.525Z,60.11
2018-09-18T02:23:14.581Z,60.28
2018-09-18T02:25:42.640Z,60.61
2018-09-18T02:28:10.699Z,60.09
2018-09-18T02:30:38.787Z,60.51
2018-09-18T02:33:06.844Z,60.23
2018-09-18T02:35:34.910Z,60.80
2018-09-18T02:38:03.015Z,60.79
2018-09-18T02:40:31.096Z,60.61
2018-09-18T02:42:59.161Z,60.96
2018-09-18T02:45:27.332Z,61.76
2018-09-18T02:47:55.417Z,61.62
2018-09-18T02:50:23.478Z,61.26
2018-09-18T02:52:51.544Z,61.48
2018-09-18T02:55:19.613Z,61.47
2018-09-18T02:57:47.842Z,61.42
2018-09-18T03:00:15.933Z,62.15
2018-09-18T03:02:44.007Z,61.54
2018-09-18T03:05:12.085Z,62.25
2018-09-18T03:07:40.189Z,62.47
2018-09-18T03:10:08.259Z,62.09
2018-09-18T03:12:36.329Z,62.15
2018-09-18T03:15:04.384Z,62.99
2018-09-18T03:17:32.467Z,62.73
2018-09-18T03:20:00.527Z,62.24
2018-09-18T03:22:28.611Z,62.15
2018-09-18T03:24:56.693Z,62.44
2018-09-18T03:27:24.865Z,62.41
2018-09-18T03:29:52.878Z,62.08
2018-09-18T03:32:20.968Z,61.98
2018-09-18T03:34:49.088Z,61.86
2018-09-18T03:37:17.195Z,61.44
2018-09-18T03:39:45.247Z,61.61
2018-09-18T03:42:13.333Z,61.07
2018-09-18T03:44:41.410Z,61.48
2018-09-18T03:47:09.496Z,61.36
2018-09-18T03:49:37.554Z,60.77
2018-09-18T03:52:05.636Z,61.10
2018-09-18T03:54:33.696Z,60.71
2018-09-18T03:57:01.780Z,61.45
2018-09-18T03:59:29.844Z,61.27
2018-09-18T04:01:57.916Z,61.42
2018-09-18T04:04:25.993Z,61.59
2018-09-18T04:06:54.099Z,61.52
2018-09-18T04:09:22.183Z,61.43
2018-09-18T04:11:50.272Z,62.06
2018-09-18T04:14:18.338Z,61.78
2018-09-18T04:16:46.429Z,62.37
2018-09-18T04:19:14.509Z,62.37
2018-09-18T04:21:43.347Z,62.99
2018-09-18T04:24:11.532Z,63.76
2018-09-18T04:26:40.625Z,63.46
2018-09-18T04:29:09.613Z,63.49
2018-09-18T04:31:38.976Z,63.36
2018-09-18T04:34:07.169Z,63.85
2018-09-18T04:36:35.257Z,64.02
2018-09-18T04:39:03.647Z,64.48
2018-09-18T04:41:31.716Z,64.09
2018-09-18T04:43:59.839Z,64.56
2018-09-18T04:46:27.927Z,64.88
2018-09-18T04:48:56.020Z,64.22
2018-09-18T04:51:24.165Z,63.69
2018-09-18T04:53:52.236Z,64.07
2018-09-18T04:56:20.319Z,63.52
2018-09-18T04:58:48.437Z,63.38
2018-09-18T05:01:16.536Z,63.50
2018-09-18T05:03:44.607Z,63.23
2018-09-18T05:06:12.763Z,63.43
2018-09-18T05:08:41.591Z,63.13
2018-09-18T05:11:09.761Z,63.15
2018-09-18T05:13:37.863Z,63.55
2018-09-18T05:16:06.008Z,63.93
2018-09-18T05:18:34.147Z,63.72
2018-09-18T05:21:02.211Z,63.61
2018-09-18T05:23:32.476Z,63.35
2018-09-18T05:26:00.576Z,63.89
2018-09-18T05:28:28.677Z,63.52
2018-09-18T05:30:56.793Z,63.43
2018-09-18T05:33:24.874Z,63.35
2018-09-18T05:35:52.978Z,63.05
2018-09-18T05:38:21.085Z,62.98
2018-09-18T05:40:49.162Z,62.54
2018-09-18T05:43:17.243Z,61.95
2018-09-18T05:45:45.332Z,60.75
2018-09-18T05:48:13.996Z,59.21
2018-09-18T05:50:43.502Z,57.97
2018-09-18T05:53:12.299Z,58.39
2018-09-18T05:55:40.395Z,56.67
2018-09-18T05:58:08.489Z,55.13
2018-09-18T06:00:36.556Z,54.56
2018-09-18T06:03:04.685Z,54.04
2018-09-18T06:05:32.749Z,52.48
2018-09-18T06:08:00.988Z,50.59
2018-09-18T06:10:29.084Z,49.12
2018-09-18T06:12:57.136Z,47.80
2018-09-18T06:15:25.350Z,47.76
2018-09-18T06:17:53.427Z,47.83
2018-09-18T06:20:21.544Z,47.72
2018-09-18T06:22:49.611Z,46.66
2018-09-18T06:25:17.708Z,45.03
2018-09-18T06:27:45.751Z,45.26
2018-09-18T06:30:13.823Z,43.37
2018-09-18T06:32:41.906Z,43.39
2018-09-18T06:35:10.023Z,42.05
2018-09-18T06:37:38.085Z,39.43
2018-09-18T06:40:06.168Z,38.35
2018-09-18T06:42:34.270Z,39.40
2018-09-18T06:45:02.360Z,36.95
2018-09-18T06:47:30.513Z,38.66
2018-09-18T06:49:58.611Z,35.26
2018-09-18T06:52:26.816Z,36.00
2018-09-18T06:54:54.892Z,35.29
2018-09-18T06:57:22.992Z,33.21
2018-09-18T06:59:51.099Z,32.67
2018-09-18T07:02:19.188Z,31.35
2018-09-18T07:04:47.284Z,32.04
2018-09-18T07:07:15.350Z,32.09
2018-09-18T07:09:43.468Z,30.74
2018-09-18T07:12:11.564Z,30.45
2018-09-18T07:14:39.644Z,30.69
2018-09-18T07:17:07.717Z,29.51
2018-09-18T07:19:35.802Z,29.93
2018-09-18T07:22:03.852Z,29.80
2018-09-18T07:24:31.952Z,29.15
2018-09-18T07:27:00.041Z,28.63
2018-09-18T07:29:28.174Z,28.92
2018-09-18T07:31:56.198Z,29.00
2018-09-18T07:34:24.255Z,29.04
2018-09-18T07:36:52.369Z,28.93
2018-09-18T07:39:20.520Z,29.24
2018-09-18T07:41:48.592Z,28.37
2018-09-18T07:44:16.680Z,28.06
2018-09-18T07:46:44.828Z,28.38
2018-09-18T07:49:12.891Z,29.16
2018-09-18T07:51:40.984Z,27.74
2018-09-18T07:54:09.137Z,28.33
2018-09-18T07:56:37.434Z,27.60
2018-09-18T07:59:05.503Z,28.91
2018-09-18T08:01:33.677Z,27.81
2018-09-18T08:04:01.750Z,27.23
2018-09-18T08:06:29.928Z,27.47
2018-09-18T08:08:58.016Z,28.44
2018-09-18T08:11:26.185Z,27.66
2018-09-18T08:13:54.278Z,27.43
2018-09-18T08:16:22.370Z,27.30
2018-09-18T08:18:50.588Z,27.50
2018-09-18T08:21:18.628Z,27.47
2018-09-18T08:23:46.723Z,27.63
2018-09-18T08:26:14.854Z,27.80
2018-09-18T08:28:42.965Z,28.49
2018-09-18T08:31:11.076Z,28.28
2018-09-18T08:33:39.161Z,27.84
2018-09-18T08:36:07.271Z,28.46
2018-09-18T08:38:35.743Z,28.20
2018-09-18T08:41:03.879Z,27.99
2018-09-18T08:43:38.156Z,27.93
2018-09-18T08:46:06.302Z,28.14
2018-09-18T08:48:34.414Z,27.95
2018-09-18T08:51:02.641Z,29.22
2018-09-18T08:53:31.661Z,29.26
2018-09-18T08:55:59.783Z,28.79
2018-09-18T08:58:27.985Z,29.10
2018-09-18T09:00:56.113Z,29.32
2018-09-18T09:03:24.229Z,29.24
2018-09-18T09:05:52.440Z,28.58
2018-09-18T09:08:20.619Z,29.14
2018-09-18T09:10:48.690Z,29.18
2018-09-18T09:13:16.750Z,28.90
2018-09-18T09:15:44.853Z,28.83
2018-09-18T09:18:12.974Z,28.31
2018-09-18T09:20:41.042Z,29.45
2018-09-18T09:23:12.417Z,30.17
2018-09-18T09:25:40.484Z,30.30
2018-09-18T09:28:08.789Z,30.54
2018-09-18T09:30:37.080Z,31.33
2018-09-18T09:33:05.215Z,32.23
2018-09-18T09:35:33.847Z,31.41
2018-09-18T09:38:03.238Z,32.35
2018-09-18T09:40:31.291Z,32.52
2018-09-18T09:43:05.625Z,32.54
2018-09-18T09:45:34.982Z,32.14
2018-09-18T09:48:05.502Z,32.37
2018-09-18T09:50:33.994Z,32.20
2018-09-18T09:53:02.148Z,32.42
2018-09-18T09:55:36.002Z,32.23
2018-09-18T09:58:04.085Z,32.75
2018-09-18T10:00:39.330Z,31.51
2018-09-18T10:03:07.552Z,31.37
2018-09-18T10:05:37.101Z,30.95
2018-09-18T10:08:05.228Z,31.43
2018-09-18T10:10:33.333Z,31.61
2018-09-18T10:13:08.334Z,31.13
2018-09-18T10:15:36.571Z,31.11
2018-09-18T10:18:04.740Z,30.69
2018-09-18T10:20:32.841Z,30.42
2018-09-18T10:23:01.349Z,30.30
2018-09-18T10:25:29.780Z,30.89
2018-09-18T10:27:57.912Z,30.49
2018-09-18T10:30:26.311Z,30.21
2018-09-18T10:32:54.439Z,30.33
2018-09-18T10:35:22.580Z,29.71
2018-09-18T10:37:50.706Z,29.10
2018-09-18T10:40:18.812Z,28.49
2018-09-18T10:42:46.995Z,29.08
2018-09-18T10:45:15.231Z,29.21
2018-09-18T10:47:43.373Z,28.62
2018-09-18T10:50:11.463Z,29.19
2018-09-18T10:52:43.743Z,28.27
2018-09-18T10:55:11.873Z,28.87
2018-09-18T10:57:41.166Z,29.19
2018-09-18T11:00:10.004Z,29.13
2018-09-18T11:02:38.356Z,28.49
2018-09-18T11:05:06.528Z,28.42
2018-09-18T11:07:34.678Z,29.50
2018-09-18T11:10:02.926Z,28.94
2018-09-18T11:12:30.940Z,28.65
2018-09-18T11:14:59.197Z,28.48
2018-09-18T11:17:27.303Z,28.82
2018-09-18T11:19:55.401Z,28.30
2018-09-18T11:22:23.694Z,28.71
2018-09-18T11:24:51.701Z,28.88
2018-09-18T11:27:20.350Z,29.22
2018-09-18T11:29:48.897Z,29.53
2018-09-18T11:32:17.316Z,28.76
2018-09-18T11:34:47.431Z,28.53
2018-09-18T11:37:15.536Z,28.49
2018-09-18T11:39:44.470Z,28.68
2018-09-18T11:42:12.625Z,28.83
2018-09-18T12:05:28.830Z,27.37
2018-09-18T12:07:56.957Z,27.09
2018-09-18T12:10:25.277Z,27.86
2018-09-18T12:12:53.495Z,27.63
2018-09-18T12:15:21.652Z,27.31
2018-09-18T12:17:50.513Z,28.11
2018-09-18T12:20:18.677Z,27.49
2018-09-18T12:22:48.622Z,28.77
2018-09-18T12:25:16.793Z,28.35
2018-09-18T12:27:45.253Z,28.10
2018-09-18T12:30:13.462Z,28.79
2018-09-18T12:32:41.847Z,28.98
2018-09-18T12:35:10.020Z,30.21
2018-09-18T12:37:38.157Z,30.78
2018-09-18T12:40:06.238Z,30.35
2018-09-18T12:42:34.417Z,31.20
2018-09-18T12:45:02.438Z,31.25
2018-09-18T12:47:30.565Z,30.87
2018-09-18T12:49:58.929Z,31.46
2018-09-18T12:52:26.878Z,31.62
2018-09-18T12:54:55.104Z,31.47
2018-09-18T12:57:23.247Z,31.38
2018-09-18T12:59:51.384Z,32.44
2018-09-18T13:02:19.368Z,31.57
2018-09-18T13:04:47.491Z,32.17
2018-09-18T13:07:15.640Z,32.16
2018-09-18T13:09:43.800Z,31.82
2018-09-18T13:12:11.902Z,31.91
2018-09-18T13:17:23.674Z,32.76
2018-09-18T13:19:52.032Z,31.35
2018-09-18T13:22:20.091Z,29.79
2018-09-18T13:24:48.286Z,29.10
2018-09-18T13:27:18.382Z,28.28
2018-09-18T13:29:46.571Z,30.28
2018-09-18T13:32:15.133Z,29.97
2018-09-18T13:34:43.314Z,30.20
2018-09-18T13:37:11.394Z,29.78
2018-09-18T13:39:39.649Z,30.08
2018-09-18T13:42:07.848Z,29.64
2018-09-18T13:44:36.648Z,29.32
2018-09-18T13:47:04.868Z,29.17
2018-09-18T13:49:33.355Z,29.53
2018-09-18T13:52:01.716Z,29.39
2018-09-18T13:54:29.880Z,29.38
2018-09-18T13:56:58.210Z,29.54
2018-09-18T13:59:26.516Z,28.84
2018-09-18T14:01:54.659Z,28.63
2018-09-18T14:04:22.887Z,28.18
2018-09-18T14:06:50.916Z,27.96
2018-09-18T14:09:19.336Z,28.39
2018-09-18T14:11:47.585Z,28.10
2018-09-18T14:14:16.218Z,28.25
2018-09-18T14:16:44.446Z,28.41
2018-09-18T14:19:12.812Z,27.99
2018-09-18T14:21:40.987Z,27.99
2018-09-18T14:24:09.113Z,28.64
2018-09-18T14:26:37.535Z,27.41
2018-09-18T14:29:05.706Z,27.48
2018-09-18T14:31:34.060Z,27.07
2018-09-18T14:34:02.197Z,28.08
2018-09-18T14:36:30.352Z,27.77
2018-09-18T14:38:58.538Z,26.78
2018-09-18T14:41:26.657Z,26.87
2018-09-18T14:43:54.754Z,27.63
2018-09-18T14:46:22.874Z,28.43
2018-09-18T14:48:50.977Z,28.13
2018-09-18T14:51:19.145Z,28.00
2018-09-18T14:53:47.344Z,28.04
2018-09-18T14:56:15.496Z,28.30
2018-09-18T14:58:43.605Z,28.42
2018-09-18T15:01:12.057Z,28.27
2018-09-18T15:03:40.537Z,28.27
2018-09-18T15:06:08.705Z,28.57
2018-09-18T15:08:36.776Z,28.46
2018-09-18T15:11:04.929Z,29.33
2018-09-18T15:13:33.052Z,28.69
2018-09-18T15:16:01.288Z,28.50
2018-09-18T15:18:29.528Z,28.90
2018-09-18T15:20:57.620Z,29.18
2018-09-18T15:23:25.969Z,29.57
2018-09-18T15:25:54.157Z,29.49
2018-09-18T15:28:22.387Z,29.67
2018-09-18T15:30:50.557Z,28.65
2018-09-18T15:33:18.658Z,28.66
2018-09-18T15:35:46.963Z,29.12
2018-09-18T15:38:15.207Z,28.42
2018-09-18T15:40:43.312Z,29.39
2018-09-18T15:43:11.504Z,29.44
2018-09-18T15:45:39.645Z,29.41
2018-09-18T15:48:07.645Z,29.43
2018-09-18T15:50:35.772Z,28.70
2018-09-18T15:53:04.142Z,28.67
2018-09-18T15:55:32.211Z,27.84
2018-09-18T15:58:00.367Z,27.64
2018-09-18T16:00:28.450Z,27.52
2018-09-18T16:02:56.596Z,27.58
2018-09-18T16:05:24.708Z,27.62
2018-09-18T16:07:53.293Z,27.50
2018-09-18T16:10:21.413Z,28.01
2018-09-18T16:12:50.136Z,27.63
2018-09-18T16:15:18.409Z,28.36
2018-09-18T16:17:48.104Z,28.36
2018-09-18T16:20:16.301Z,27.66
2018-09-18T16:22:44.482Z,28.13
2018-09-18T16:25:12.587Z,28.22
2018-09-18T16:27:40.767Z,27.78
2018-09-18T16:30:08.867Z,28.43
2018-09-18T16:32:37.024Z,28.04
2018-09-18T16:35:07.490Z,28.14
2018-09-18T16:37:38.164Z,28.55
2018-09-18T16:40:06.414Z,28.52
2018-09-18T16:42:34.709Z,28.92
2018-09-18T16:45:02.721Z,28.60
2018-09-18T16:47:30.829Z,29.43
2018-09-18T16:49:58.968Z,29.37
2018-09-18T16:52:27.073Z,30.07
2018-09-18T16:54:55.298Z,29.84
2018-09-18T16:57:23.310Z,30.22
2018-09-18T16:59:51.381Z,30.40
2018-09-18T17:02:19.568Z,30.17
2018-09-18T17:04:47.613Z,30.22
2018-09-18T17:07:15.696Z,30.20
2018-09-18T17:09:43.786Z,30.37
2018-09-18T17:12:11.934Z,30.86
2018-09-18T17:14:40.077Z,30.82
2018-09-18T17:17:08.257Z,31.26
2018-09-18T17:19:36.388Z,30.63
2018-09-18T17:22:04.657Z,31.60
2018-09-18T17:24:32.852Z,30.98
2018-09-18T17:27:00.993Z,31.87
2018-09-18T17:29:29.118Z,31.61
2018-09-18T17:31:57.270Z,32.19
2018-09-18T17:34:25.557Z,31.64
2018-09-18T17:36:53.626Z,31.69
2018-09-18T17:39:21.814Z,32.57
2018-09-18T17:41:49.904Z,32.67
2018-09-18T17:44:18.024Z,32.61
2018-09-18T17:46:46.148Z,32.78
2018-09-18T17:49:14.290Z,32.92
2018-09-18T17:51:42.398Z,32.50
2018-09-18T17:54:10.599Z,33.20
2018-09-18T17:56:38.861Z,33.07
2018-09-18T17:59:06.995Z,33.04
2018-09-18T18:01:35.073Z,32.98
2018-09-18T18:04:03.406Z,33.16
2018-09-18T18:06:31.763Z,33.33
2018-09-18T18:08:59.981Z,33.61
2018-09-18T18:11:28.132Z,34.20
2018-09-18T18:13:56.331Z,33.81
2018-09-18T18:16:24.461Z,34.26
2018-09-18T18:18:52.595Z,34.54
2018-09-18T18:21:20.956Z,34.80
2018-09-18T18:23:49.064Z,34.49
2018-09-18T18:26:17.262Z,35.33
2018-09-18T18:28:45.329Z,34.84
2018-09-18T18:31:13.419Z,35.89
2018-09-18T18:33:41.565Z,35.36
2018-09-18T18:36:09.777Z,36.69
2018-09-18T18:38:38.385Z,37.03
2018-09-18T18:41:06.538Z,37.13
2018-09-18T18:43:34.673Z,37.09
2018-09-18T18:46:02.728Z,36.71
2018-09-18T18:48:31.046Z,37.49
2018-09-18T18:50:59.072Z,37.41
2018-09-18T18:53:27.169Z,37.33
2018-09-18T18:55:55.442Z,37.18
2018-09-18T18:58:23.482Z,37.03
2018-09-18T19:00:51.570Z,36.45
2018-09-18T19:03:19.745Z,35.93
2018-09-18T19:05:47.867Z,36.11
2018-09-18T19:08:16.103Z,36.06
2018-09-18T19:10:44.269Z,35.87
2018-09-18T19:13:12.379Z,36.56
2018-09-18T19:15:40.582Z,35.54
2018-09-18T19:18:08.685Z,36.22
2018-09-18T19:20:36.804Z,36.24
2018-09-18T19:23:05.217Z,36.26
2018-09-18T19:25:33.534Z,35.59
2018-09-18T19:28:01.769Z,35.58
2018-09-18T19:30:30.122Z,36.34
2018-09-18T19:32:58.419Z,36.58
2018-09-18T19:35:26.512Z,36.00
2018-09-18T19:37:54.628Z,36.44
2018-09-18T19:40:23.061Z,36.84
2018-09-18T19:42:51.208Z,37.48
2018-09-18T19:45:19.299Z,37.10
2018-09-18T19:47:47.406Z,38.20
2018-09-18T19:50:16.487Z,38.24
2018-09-18T19:52:45.702Z,38.91
2018-09-18T19:55:14.276Z,38.59
2018-09-18T19:57:42.360Z,38.80
2018-09-18T20:00:14.846Z,39.63
2018-09-18T20:02:43.162Z,39.77
2018-09-18T20:05:11.800Z,39.78
2018-09-18T20:07:40.193Z,39.98
2018-09-18T20:10:09.057Z,40.49
2018-09-18T20:12:37.289Z,40.46
2018-09-18T20:15:05.360Z,41.15
2018-09-18T20:17:33.481Z,40.83
2018-09-18T20:20:01.637Z,41.67
2018-09-18T20:22:29.789Z,41.69
2018-09-18T20:24:57.989Z,42.32
2018-09-18T20:27:26.180Z,41.98
2018-09-18T20:29:54.295Z,41.48
2018-09-18T20:32:22.435Z,42.60
2018-09-18T20:34:50.538Z,42.68
2018-09-18T20:37:18.817Z,42.98
2018-09-18T20:42:26.848Z,43.22
2018-09-18T20:44:55.057Z,43.64
2018-09-18T20:47:23.153Z,43.96
2018-09-18T20:49:51.349Z,44.53
2018-09-18T20:52:19.478Z,44.62
2018-09-18T20:54:47.776Z,44.74
2018-09-18T20:57:15.964Z,44.86
2018-09-18T20:59:44.071Z,45.22
2018-09-18T21:02:12.308Z,44.74
2018-09-18T21:04:40.346Z,45.75
2018-09-18T21:07:08.431Z,45.86
2018-09-18T21:09:36.551Z,45.71
2018-09-18T21:12:04.680Z,46.16
2018-09-18T21:14:32.811Z,46.51
2018-09-18T21:17:01.273Z,47.07
2018-09-18T21:19:29.424Z,46.90
2018-09-18T21:21:57.506Z,46.72
2018-09-18T21:24:25.723Z,47.77
2018-09-18T21:26:53.804Z,47.75
2018-09-18T21:29:21.907Z,48.00
2018-09-18T21:31:50.027Z,48.51
2018-09-18T21:34:18.130Z,48.22
2018-09-18T21:36:46.264Z,48.72
2018-09-18T21:39:14.339Z,48.21
2018-09-18T21:41:42.476Z,49.33
2018-09-18T21:44:10.608Z,49.37
2018-09-18T21:46:38.697Z,49.16
2018-09-18T21:49:06.764Z,50.03
2018-09-18T21:51:34.994Z,49.36
2018-09-18T21:54:03.084Z,49.66
2018-09-18T21:56:31.183Z,49.77
2018-09-18T21:58:59.274Z,50.20
2018-09-18T22:01:27.421Z,50.71
2018-09-18T22:03:55.411Z,50.71
2018-09-18T22:06:23.510Z,50.23
2018-09-18T22:08:51.600Z,50.90
2018-09-18T22:11:19.689Z,51.59
2018-09-18T22:13:47.937Z,51.09
2018-09-18T22:16:16.045Z,51.11
2018-09-18T22:18:44.159Z,51.14
2018-09-18T22:21:12.241Z,51.88
2018-09-18T22:23:40.319Z,52.07
2018-09-18T22:26:08.406Z,52.11
2018-09-18T22:28:36.478Z,52.45
2018-09-18T22:31:04.618Z,51.92
2018-09-18T22:33:32.733Z,52.68
2018-09-18T22:36:00.840Z,52.45
2018-09-18T22:38:28.927Z,52.78
2018-09-18T22:40:57.068Z,52.91
2018-09-18T22:43:25.108Z,53.39
2018-09-18T22:45:53.920Z,53.17
2018-09-18T22:48:21.988Z,53.38
2018-09-18T22:50:50.069Z,54.05
2018-09-18T22:53:18.195Z,53.49
2018-09-18T22:55:46.372Z,53.83
2018-09-18T22:58:14.437Z,53.86
2018-09-18T23:00:42.492Z,54.13
2018-09-18T23:03:10.563Z,54.13
2018-09-18T23:05:38.647Z,54.56
2018-09-18T23:08:06.753Z,54.12
2018-09-18T23:10:34.869Z,54.69
2018-09-18T23:13:02.971Z,54.39
2018-09-18T23:15:31.040Z,54.86
2018-09-18T23:17:59.164Z,55.49
2018-09-18T23:20:27.260Z,55.55
2018-09-18T23:22:55.335Z,57.33
2018-09-18T23:25:23.441Z,56.49
2018-09-18T23:27:51.528Z,56.56
2018-09-18T23:30:19.565Z,58.07
2018-09-18T23:32:47.644Z,58.56
2018-09-18T23:35:15.704Z,58.08
2018-09-18T23:37:43.821Z,57.19
2018-09-18T23:40:11.906Z,57.22
2018-09-18T23:42:40.020Z,56.75
2018-09-18T23:45:08.128Z,57.53
2018-09-18T23:47:36.223Z,56.88
2018-09-18T23:50:04.363Z,58.21
2018-09-18T23:52:32.466Z,57.24
2018-09-18T23:55:00.540Z,57.65
2018-09-18T23:57:35.348Z,58.24
